Time;durP1;ratioP1;P1;durP2;ratioP2;P2;SDS_P1;SDS_P2;PMS_P1;PMS_P2;Temp;Humidity;BMP_temperature;BMP_pressure;BME280_temperature;BME280_humidity;BME280_pressure;Samples;Min_cycle;Max_cycle;Signal;HPM_P1;HPM_P2
2021/08/10 00:02:19;;;;;;;0.97;0.80;;;15.90;99.90;;;;;;5016855;28;20459;-89
2021/08/10 00:04:46;;;;;;;0.40;0.33;;;15.80;99.90;;;;;;5034738;28;20458;-89
2021/08/10 00:07:28;;;;;;;0.50;0.50;;;15.80;99.90;;;;;;5036107;28;20443;-83
2021/08/10 00:09:55;;;;;;;1.23;0.60;;;15.80;99.90;;;;;;5035465;28;20460;-84
2021/08/10 00:12:22;;;;;;;0.83;0.70;;;15.80;99.90;;;;;;5035415;28;20462;-84
2021/08/10 00:14:49;;;;;;;0.67;0.67;;;15.80;99.90;;;;;;5035015;28;20435;-84
2021/08/10 00:17:17;;;;;;;0.90;0.90;;;15.80;99.90;;;;;;5035990;28;20837;-83
2021/08/10 00:19:44;;;;;;;0.30;0.30;;;15.80;99.90;;;;;;5035748;28;20450;-84
2021/08/10 00:22:11;;;;;;;0.40;0.40;;;15.80;99.90;;;;;;5034968;28;20479;-84
2021/08/10 00:24:37;;;;;;;0.60;0.60;;;15.80;99.90;;;;;;5035525;28;20455;-84
2021/08/10 00:27:04;;;;;;;0.50;0.50;;;15.70;99.90;;;;;;5035123;28;20447;-84
2021/08/10 00:29:31;;;;;;;1.40;0.53;;;15.70;99.90;;;;;;5035287;28;20520;-84
2021/08/10 00:31:58;;;;;;;0.53;0.53;;;15.60;99.90;;;;;;5034935;28;20827;-84
2021/08/10 00:34:26;;;;;;;0.70;0.70;;;15.60;99.90;;;;;;5034693;28;20446;-83
2021/08/10 00:36:53;;;;;;;1.20;0.60;;;15.60;99.90;;;;;;5035094;28;20981;-88
2021/08/10 00:42:12;;;;;;;1.43;0.50;;;15.50;99.90;;;;;;5032403;28;20557;-86
2021/08/10 00:44:42;;;;;;;0.93;0.80;;;15.50;99.90;;;;;;5035144;28;20443;-88
2021/08/10 00:47:10;;;;;;;0.50;0.40;;;15.50;99.90;;;;;;5035773;28;20500;-89
2021/08/10 00:49:50;;;;;;;0.30;0.30;;;15.40;99.90;;;;;;5035352;28;20446;-88
2021/08/10 00:52:23;;;;;;;0.40;0.30;;;15.40;99.90;;;;;;5035669;28;20473;-88
2021/08/10 00:54:49;;;;;;;1.10;0.50;;;15.40;99.90;;;;;;5035225;28;20450;-88
2021/08/10 00:57:17;;;;;;;0.80;0.53;;;15.40;99.90;;;;;;5035110;28;21024;-88
2021/08/10 01:02:27;;;;;;;1.07;0.60;;;15.40;99.90;;;;;;5035904;28;20835;-88
2021/08/10 01:04:56;;;;;;;0.50;0.40;;;15.40;99.90;;;;;;5035051;28;20446;-88
2021/08/10 01:07:31;;;;;;;0.50;0.50;;;15.40;99.90;;;;;;5034920;28;20430;-88
2021/08/10 01:10:07;;;;;;;0.50;0.40;;;15.40;99.90;;;;;;5035151;28;20418;-88
2021/08/10 01:12:45;;;;;;;0.50;0.37;;;15.40;99.90;;;;;;5034773;28;20497;-88
2021/08/10 01:15:15;;;;;;;0.50;0.50;;;15.40;99.90;;;;;;5035873;28;20441;-88
2021/08/10 01:17:48;;;;;;;0.63;0.50;;;15.40;99.90;;;;;;5035614;28;20977;-88
2021/08/10 01:20:55;;;;;;;0.70;0.70;;;15.40;99.90;;;;;;5035417;28;20443;-89
2021/08/10 01:23:31;;;;;;;0.57;0.53;;;15.30;99.90;;;;;;5034969;28;20494;-88
2021/08/10 01:26:06;;;;;;;0.50;0.33;;;15.30;99.90;;;;;;5034993;28;20427;-89
2021/08/10 01:28:46;;;;;;;1.17;0.50;;;15.30;99.90;;;;;;5034982;28;20423;-89
2021/08/10 01:31:39;;;;;;;0.60;0.60;;;15.30;99.90;;;;;;5033983;28;20502;-85
2021/08/10 01:34:15;;;;;;;2.00;0.50;;;15.20;99.90;;;;;;5034302;28;21006;-84
2021/08/10 01:36:44;;;;;;;0.70;0.43;;;15.20;99.90;;;;;;5033801;28;20458;-86
2021/08/10 01:39:13;;;;;;;0.60;0.60;;;15.20;99.90;;;;;;5033759;28;20451;-85
2021/08/10 01:41:42;;;;;;;0.40;0.40;;;15.20;99.90;;;;;;5033765;28;20528;-85
2021/08/10 01:44:09;;;;;;;0.50;0.40;;;15.20;99.90;;;;;;5033695;28;20435;-85
2021/08/10 01:46:38;;;;;;;0.50;0.47;;;15.10;99.90;;;;;;5033818;28;20454;-85
2021/08/10 01:51:50;;;;;;;5.70;1.03;;;15.10;99.90;;;;;;5033052;28;20486;-85
2021/08/10 01:54:19;;;;;;;0.50;0.50;;;15.00;99.90;;;;;;5033425;28;20454;-85
2021/08/10 01:56:46;;;;;;;1.50;0.63;;;14.90;99.90;;;;;;5033602;28;20474;-85
2021/08/10 01:59:14;;;;;;;1.03;0.40;;;14.90;99.90;;;;;;5033594;28;20442;-85
2021/08/10 02:01:43;;;;;;;1.70;0.60;;;14.80;99.90;;;;;;5034087;28;20478;-88
2021/08/10 02:04:11;;;;;;;0.40;0.40;;;14.80;99.90;;;;;;5034352;28;20458;-88
2021/08/10 02:06:39;;;;;;;0.47;0.33;;;14.80;99.90;;;;;;5033978;28;20439;-87
2021/08/10 02:09:13;;;;;;;0.50;0.50;;;14.80;99.90;;;;;;5034347;28;20435;-88
2021/08/10 02:11:40;;;;;;;0.53;0.50;;;14.70;99.90;;;;;;5034524;28;20549;-87
2021/08/10 02:17:06;;;;;;;1.10;0.77;;;14.70;99.90;;;;;;5033144;28;20467;-88
2021/08/10 02:19:34;;;;;;;0.50;0.50;;;14.70;99.90;;;;;;5034094;28;20446;-83
2021/08/10 02:22:04;;;;;;;1.03;0.47;;;14.70;99.90;;;;;;5032661;28;20494;-83
2021/08/10 02:24:38;;;;;;;0.40;0.30;;;14.70;99.90;;;;;;5035255;28;20976;-83
2021/08/10 02:27:08;;;;;;;1.03;0.80;;;14.70;99.90;;;;;;5037265;28;20438;-83
2021/08/10 02:29:37;;;;;;;0.50;0.30;;;14.70;99.90;;;;;;5037097;28;20415;-83
2021/08/10 02:32:08;;;;;;;0.93;0.40;;;14.60;99.90;;;;;;5036931;28;20829;-83
2021/08/10 02:34:35;;;;;;;0.50;0.50;;;14.60;99.90;;;;;;5037319;28;20450;-83
2021/08/10 02:37:05;;;;;;;1.70;0.80;;;14.60;99.90;;;;;;5037020;28;20486;-83
2021/08/10 02:39:33;;;;;;;1.93;0.43;;;14.60;99.90;;;;;;5037094;28;20439;-83
2021/08/10 02:42:01;;;;;;;0.50;0.40;;;14.60;99.90;;;;;;5036880;28;20970;-83
2021/08/10 02:44:29;;;;;;;0.93;0.70;;;14.60;99.90;;;;;;5036901;28;20547;-83
2021/08/10 02:46:56;;;;;;;0.47;0.47;;;14.50;99.90;;;;;;5037002;28;20450;-83
2021/08/10 02:49:26;;;;;;;0.50;0.50;;;14.50;99.90;;;;;;5036979;28;20946;-83
2021/08/10 02:51:53;;;;;;;0.90;0.70;;;14.50;99.90;;;;;;5037381;28;20486;-83
2021/08/10 02:54:20;;;;;;;1.53;0.53;;;14.50;99.90;;;;;;5037347;28;20439;-87
2021/08/10 02:56:53;;;;;;;0.50;0.43;;;14.50;99.90;;;;;;5037284;28;20549;-87
2021/08/10 02:59:25;;;;;;;0.70;0.60;;;14.50;99.90;;;;;;5038233;28;20443;-87
2021/08/10 03:01:59;;;;;;;1.10;0.43;;;14.50;99.90;;;;;;5037295;28;20589;-87
2021/08/10 03:04:31;;;;;;;0.90;0.50;;;14.40;99.90;;;;;;5037316;28;20794;-89
2021/08/10 03:06:59;;;;;;;0.70;0.60;;;14.40;99.90;;;;;;5036762;28;20947;-85
2021/08/10 03:09:27;;;;;;;0.70;0.40;;;14.40;99.90;;;;;;5036296;28;20435;-83
2021/08/10 03:11:57;;;;;;;0.37;0.33;;;14.40;99.90;;;;;;5036176;28;20458;-83
2021/08/10 03:14:25;;;;;;;0.60;0.50;;;14.40;99.90;;;;;;5036453;28;20446;-83
2021/08/10 03:16:53;;;;;;;1.37;0.63;;;14.40;99.90;;;;;;5035994;28;20486;-83
2021/08/10 03:19:21;;;;;;;1.70;0.60;;;14.30;99.90;;;;;;5037666;28;20450;-88
2021/08/10 03:21:51;;;;;;;0.47;0.40;;;14.40;99.90;;;;;;5036864;28;20493;-88
2021/08/10 03:24:26;;;;;;;0.40;0.40;;;14.40;99.90;;;;;;5037769;28;20455;-88
2021/08/10 03:26:54;;;;;;;0.40;0.40;;;14.40;99.90;;;;;;5037544;28;20536;-87
2021/08/10 03:29:23;;;;;;;0.60;0.50;;;14.30;99.90;;;;;;5036505;28;20446;-87
2021/08/10 03:31:51;;;;;;;0.40;0.40;;;14.30;99.90;;;;;;5035866;28;20459;-83
2021/08/10 03:34:28;;;;;;;0.50;0.50;;;14.30;99.90;;;;;;5035847;28;20458;-83
2021/08/10 03:37:11;;;;;;;0.40;0.40;;;14.30;99.90;;;;;;5035889;28;20463;-83
2021/08/10 03:42:40;;;;;;;0.50;0.50;;;14.20;99.90;;;;;;5035746;28;20578;-85
2021/08/10 03:45:08;;;;;;;0.60;0.50;;;14.20;99.90;;;;;;5035949;28;20470;-85
2021/08/10 03:47:39;;;;;;;0.40;0.40;;;14.20;99.90;;;;;;5036346;28;20450;-87
2021/08/10 03:50:09;;;;;;;0.40;0.40;;;14.20;99.90;;;;;;5036777;28;21012;-88
2021/08/10 03:52:41;;;;;;;1.27;0.70;;;14.20;99.90;;;;;;5036543;28;20486;-89
2021/08/10 03:57:57;;;;;;;1.37;0.50;;;14.20;99.90;;;;;;5036185;28;20482;-89
2021/08/10 04:00:45;;;;;;;0.50;0.50;;;14.20;99.90;;;;;;5036312;28;20505;-89
2021/08/10 04:03:17;;;;;;;0.50;0.50;;;14.10;99.90;;;;;;5036272;28;20447;-89
2021/08/10 04:05:47;;;;;;;0.53;0.50;;;14.10;99.90;;;;;;5035227;28;20832;-83
2021/08/10 04:08:17;;;;;;;0.30;0.30;;;14.10;99.90;;;;;;5035606;28;20427;-83
2021/08/10 04:10:45;;;;;;;0.70;0.70;;;14.20;99.90;;;;;;5035345;28;20447;-88
2021/08/10 04:13:12;;;;;;;1.23;0.57;;;14.20;99.90;;;;;;5036425;28;20435;-88
2021/08/10 04:15:42;;;;;;;0.60;0.43;;;14.20;99.90;;;;;;5036441;28;20437;-88
2021/08/10 04:18:11;;;;;;;1.13;0.50;;;14.30;99.90;;;;;;5036225;28;20478;-88
2021/08/10 04:20:38;;;;;;;0.60;0.40;;;14.30;99.90;;;;;;5036322;28;20459;-88
2021/08/10 04:23:05;;;;;;;0.67;0.47;;;14.40;99.90;;;;;;5036105;28;21015;-89
2021/08/10 04:25:34;;;;;;;1.43;0.70;;;14.40;99.90;;;;;;5036289;28;20458;-88
2021/08/10 04:28:01;;;;;;;0.90;0.50;;;14.40;99.90;;;;;;5035901;28;20443;-88
2021/08/10 04:30:27;;;;;;;4.00;1.30;;;14.40;99.90;;;;;;5036209;28;20938;-88
2021/08/10 04:32:54;;;;;;;1.03;0.53;;;14.40;99.90;;;;;;5035674;28;20465;-89
2021/08/10 04:35:21;;;;;;;0.50;0.50;;;14.50;99.90;;;;;;5035770;28;20446;-88
2021/08/10 04:37:48;;;;;;;0.60;0.60;;;14.50;99.90;;;;;;5035583;28;20470;-88
2021/08/10 04:40:15;;;;;;;0.80;0.50;;;14.50;99.90;;;;;;5035640;28;20457;-88
2021/08/10 04:42:43;;;;;;;0.47;0.47;;;14.60;99.90;;;;;;5035745;28;20816;-88
2021/08/10 04:45:11;;;;;;;0.50;0.47;;;14.60;99.90;;;;;;5036383;28;20489;-88
2021/08/10 04:47:38;;;;;;;0.50;0.40;;;14.60;99.90;;;;;;5034720;28;20832;-84
2021/08/10 04:50:13;;;;;;;0.83;0.60;;;14.60;99.90;;;;;;5034434;28;20435;-84
2021/08/10 04:52:39;;;;;;;1.30;0.70;;;14.70;99.90;;;;;;5034411;28;20984;-84
2021/08/10 04:55:08;;;;;;;0.77;0.50;;;14.70;99.90;;;;;;5034625;28;20442;-84
2021/08/10 04:57:34;;;;;;;0.40;0.40;;;14.70;99.90;;;;;;5034466;28;20479;-83
2021/08/10 05:00:11;;;;;;;0.60;0.60;;;14.80;99.90;;;;;;5034285;28;20930;-83
2021/08/10 05:02:38;;;;;;;0.90;0.50;;;14.80;99.90;;;;;;5033897;28;20478;-84
2021/08/10 05:05:16;;;;;;;1.63;0.40;;;14.80;99.90;;;;;;5034513;28;20458;-84
2021/08/10 05:07:44;;;;;;;1.57;0.60;;;14.80;99.90;;;;;;5034271;28;20435;-85
2021/08/10 05:10:12;;;;;;;0.60;0.60;;;14.90;99.90;;;;;;5033967;28;20842;-85
2021/08/10 05:12:39;;;;;;;0.70;0.50;;;14.90;99.90;;;;;;5034596;28;20502;-85
2021/08/10 05:15:08;;;;;;;0.50;0.50;;;14.90;99.90;;;;;;5033844;28;20435;-85
2021/08/10 05:17:35;;;;;;;0.50;0.50;;;14.90;99.90;;;;;;5033759;28;20850;-85
2021/08/10 05:20:02;;;;;;;0.40;0.40;;;15.00;99.90;;;;;;5034296;28;20473;-85
2021/08/10 05:22:28;;;;;;;1.20;0.50;;;15.00;99.90;;;;;;5033671;28;20482;-85
2021/08/10 05:24:55;;;;;;;0.30;0.30;;;15.00;99.90;;;;;;5034403;28;20454;-85
2021/08/10 05:27:22;;;;;;;0.80;0.43;;;15.10;99.90;;;;;;5033895;28;20453;-83
2021/08/10 05:29:49;;;;;;;0.93;0.50;;;15.10;99.90;;;;;;5033768;28;20494;-83
2021/08/10 05:32:17;;;;;;;0.73;0.40;;;15.20;99.90;;;;;;5033674;28;20565;-84
2021/08/10 05:34:44;;;;;;;0.73;0.40;;;15.20;99.90;;;;;;5034759;28;20508;-83
2021/08/10 05:37:11;;;;;;;0.60;0.40;;;15.20;99.90;;;;;;5033717;28;20922;-83
2021/08/10 05:39:37;;;;;;;1.27;0.63;;;15.20;99.90;;;;;;5033776;28;20791;-83
2021/08/10 05:42:05;;;;;;;0.50;0.40;;;15.30;99.90;;;;;;5033286;28;20809;-83
2021/08/10 05:44:31;;;;;;;0.97;0.50;;;15.30;99.90;;;;;;5034836;28;20454;-88
2021/08/10 05:46:58;;;;;;;0.40;0.40;;;15.30;99.90;;;;;;5034130;28;20803;-88
2021/08/10 05:49:27;;;;;;;2.17;0.57;;;15.30;99.90;;;;;;5034520;28;20501;-88
2021/08/10 05:51:53;;;;;;;0.60;0.60;;;15.40;99.90;;;;;;5034436;28;20565;-88
2021/08/10 05:54:20;;;;;;;1.10;0.80;;;15.40;99.90;;;;;;5033976;28;20526;-84
2021/08/10 05:56:48;;;;;;;0.70;0.40;;;15.50;99.90;;;;;;5033584;28;20450;-84
2021/08/10 05:59:15;;;;;;;0.80;0.63;;;15.50;99.90;;;;;;5032159;28;20605;-84
2021/08/10 06:01:42;;;;;;;0.60;0.40;;;15.50;99.90;;;;;;5033430;28;20480;-84
2021/08/10 06:04:09;;;;;;;0.70;0.70;;;15.50;99.90;;;;;;5034053;28;20982;-83
2021/08/10 06:06:37;;;;;;;0.40;0.40;;;15.50;99.90;;;;;;5033124;28;20459;-84
2021/08/10 06:09:04;;;;;;;3.17;0.73;;;15.60;99.90;;;;;;5033822;28;20438;-84
2021/08/10 06:11:32;;;;;;;1.63;1.10;;;15.60;99.90;;;;;;5033202;28;20481;-83
2021/08/10 06:13:59;;;;;;;0.50;0.30;;;15.70;99.90;;;;;;5033205;28;20446;-85
2021/08/10 06:16:26;;;;;;;1.20;0.50;;;15.70;99.90;;;;;;5033049;28;20952;-87
2021/08/10 06:18:53;;;;;;;1.30;0.70;;;15.80;99.90;;;;;;5034541;28;20561;-88
2021/08/10 06:21:21;;;;;;;0.60;0.60;;;15.80;99.90;;;;;;5033688;28;20501;-88
2021/08/10 06:23:49;;;;;;;0.70;0.43;;;15.80;99.90;;;;;;5033422;28;20577;-88
2021/08/10 06:29:12;;;;;;;1.60;0.97;;;15.80;99.90;;;;;;5033122;28;20569;-88
2021/08/10 06:34:49;;;;;;;0.57;0.57;;;16.00;99.90;;;;;;5033280;28;20455;-88
2021/08/10 06:37:23;;;;;;;0.60;0.60;;;16.10;99.90;;;;;;5025354;28;20793;-88
2021/08/10 06:39:53;;;;;;;2.10;0.70;;;16.20;99.90;;;;;;5034236;28;20473;-88
2021/08/10 06:42:34;;;;;;;0.50;0.50;;;16.30;99.90;;;;;;5034350;28;20823;-88
2021/08/10 06:45:03;;;;;;;1.27;0.50;;;16.40;99.90;;;;;;5033836;28;20411;-88
2021/08/10 06:47:34;;;;;;;0.40;0.30;;;16.50;99.90;;;;;;5033361;28;20946;-89
2021/08/10 06:50:01;;;;;;;0.53;0.53;;;16.70;99.90;;;;;;5033751;28;20961;-88
2021/08/10 06:52:28;;;;;;;0.73;0.57;;;16.80;99.90;;;;;;5033199;28;20447;-87
2021/08/10 06:54:56;;;;;;;0.40;0.40;;;17.00;99.90;;;;;;5033421;28;20443;-88
2021/08/10 06:57:23;;;;;;;0.50;0.33;;;17.20;99.90;;;;;;5033537;28;20901;-88
2021/08/10 06:59:50;;;;;;;0.77;0.50;;;17.40;99.90;;;;;;5033502;28;20479;-88
2021/08/10 07:02:16;;;;;;;0.40;0.40;;;17.70;99.90;;;;;;5033524;28;20470;-88
2021/08/10 07:04:43;;;;;;;0.60;0.40;;;17.90;99.90;;;;;;5033997;28;20447;-88
2021/08/10 07:07:10;;;;;;;6.23;0.60;;;18.10;99.90;;;;;;5033686;28;20461;-88
2021/08/10 07:09:37;;;;;;;0.60;0.60;;;18.30;99.90;;;;;;5033365;28;20454;-88
2021/08/10 07:12:05;;;;;;;0.80;0.80;;;18.50;99.90;;;;;;5036852;28;20470;-88
2021/08/10 07:14:32;;;;;;;0.40;0.40;;;18.60;99.90;;;;;;5037056;28;20459;-88
2021/08/10 07:16:59;;;;;;;0.37;0.37;;;18.80;99.90;;;;;;5037194;28;20941;-88
2021/08/10 07:19:25;;;;;;;0.60;0.50;;;18.80;99.90;;;;;;5036681;28;20474;-86
2021/08/10 07:21:52;;;;;;;0.40;0.40;;;18.80;99.90;;;;;;5036110;28;20490;-86
2021/08/10 07:24:20;;;;;;;0.67;0.50;;;18.80;99.90;;;;;;5036025;28;20438;-84
2021/08/10 07:26:46;;;;;;;0.77;0.60;;;18.90;99.90;;;;;;5036827;28;20462;-84
2021/08/10 07:29:15;;;;;;;3.47;0.60;;;18.90;99.90;;;;;;5035842;28;20512;-84
2021/08/10 07:31:42;;;;;;;0.60;0.50;;;19.00;99.90;;;;;;5035751;28;20475;-84
2021/08/10 07:34:08;;;;;;;0.73;0.43;;;19.00;99.90;;;;;;5036001;28;20458;-84
2021/08/10 07:36:36;;;;;;;0.50;0.40;;;19.10;99.90;;;;;;5036370;28;20455;-88
2021/08/10 07:39:26;;;;;;;1.23;0.90;;;19.20;99.90;;;;;;5036170;28;20509;-88
2021/08/10 07:42:30;;;;;;;0.40;0.40;;;19.10;99.90;;;;;;5034365;28;20475;-85
2021/08/10 07:45:12;;;;;;;2.10;1.00;;;19.20;99.90;;;;;;5036522;28;20442;-89
2021/08/10 07:51:07;;;;;;;0.90;0.90;;;19.50;99.90;;;;;;5035622;28;20469;-88
2021/08/10 07:53:42;;;;;;;1.83;0.70;;;19.50;99.90;;;;;;5036465;28;20470;-83
2021/08/10 07:56:24;;;;;;;0.73;0.50;;;19.60;99.90;;;;;;5035375;28;20520;-84
2021/08/10 07:59:09;;;;;;;0.97;0.67;;;19.60;99.90;;;;;;5033593;28;20532;-89
2021/08/10 08:01:46;;;;;;;0.50;0.50;;;19.70;99.90;;;;;;5036171;28;20462;-89
2021/08/10 08:10:52;;;;;;;0.67;0.53;;;19.80;99.90;;;;;;4992841;28;20467;-88
2021/08/10 08:16:29;;;;;;;0.60;0.60;;;20.10;99.90;;;;;;4994083;28;20452;-89
2021/08/10 08:19:16;;;;;;;0.60;0.60;;;20.30;99.90;;;;;;4994835;28;20488;-89
2021/08/10 08:24:37;;;;;;;0.40;0.40;;;20.80;99.90;;;;;;5036639;28;20434;-88
2021/08/10 08:27:05;;;;;;;0.73;0.60;;;21.00;99.90;;;;;;5036126;28;20946;-89
2021/08/10 08:29:42;;;;;;;1.37;0.40;;;21.10;99.90;;;;;;5036943;28;20447;-89
2021/08/10 08:32:24;;;;;;;0.70;0.60;;;21.20;99.90;;;;;;5035771;28;20511;-89
2021/08/10 08:34:58;;;;;;;0.60;0.40;;;21.30;99.90;;;;;;5036758;28;20551;-89
2021/08/10 08:37:35;;;;;;;0.40;0.40;;;21.30;99.90;;;;;;5036082;28;20457;-89
2021/08/10 08:40:11;;;;;;;0.97;0.50;;;21.30;99.90;;;;;;5035050;28;20509;-89
2021/08/10 08:42:58;;;;;;;0.50;0.50;;;21.40;99.90;;;;;;5035588;28;20479;-89
2021/08/10 12:45:42;;;;;;;0.80;0.80;;;24.60;99.90;;;;;;5033890;28;20277;-88
2021/08/10 12:48:32;;;;;;;3.25;0.73;;;24.60;99.90;;;;;;5035487;28;20196;-87
2021/08/10 12:51:04;;;;;;;0.95;0.50;;;24.50;99.90;;;;;;5035392;28;20282;-88
2021/08/10 12:53:39;;;;;;;1.65;0.52;;;24.40;99.90;;;;;;5035152;28;20211;-87
2021/08/10 12:56:10;;;;;;;1.00;0.73;;;24.30;99.90;;;;;;5034826;28;20203;-88
2021/08/10 12:58:52;;;;;;;0.73;0.60;;;24.20;99.90;;;;;;5035856;28;20630;-84
2021/08/10 13:01:20;;;;;;;0.90;0.63;;;24.20;99.90;;;;;;5034781;28;20729;-88
2021/08/10 13:03:47;;;;;;;0.77;0.77;;;24.10;99.90;;;;;;5035531;28;20218;-88
2021/08/10 13:06:34;;;;;;;1.13;0.60;;;24.00;99.90;;;;;;5035015;28;20212;-88
2021/08/10 13:09:00;;;;;;;0.52;0.43;;;23.90;99.90;;;;;;5034953;28;20207;-87
2021/08/10 13:11:27;;;;;;;0.80;0.80;;;23.90;99.90;;;;;;5034732;28;20231;-86
2021/08/10 13:14:11;;;;;;;0.50;0.50;;;24.00;99.90;;;;;;5035083;28;20556;-88
2021/08/10 13:16:56;;;;;;;0.50;0.50;;;24.00;99.90;;;;;;5035054;28;20215;-88
2021/08/10 13:19:25;;;;;;;0.70;0.70;;;23.90;99.90;;;;;;5025824;28;20313;-88
2021/08/10 13:22:03;;;;;;;0.55;0.50;;;23.90;99.90;;;;;;5034677;28;20599;-89
2021/08/10 13:24:31;;;;;;;0.73;0.52;;;23.90;99.90;;;;;;5018616;28;20735;-89
2021/08/10 13:26:59;;;;;;;0.77;0.70;;;23.90;99.90;;;;;;5034810;28;20222;-89
2021/08/10 13:29:37;;;;;;;0.57;0.57;;;24.20;99.90;;;;;;5035153;28;20663;-89
2021/08/10 13:32:17;;;;;;;1.27;0.70;;;24.30;99.90;;;;;;5034803;28;20314;-88
2021/08/10 13:34:45;;;;;;;0.63;0.52;;;24.30;99.90;;;;;;5034497;28;20188;-88
2021/08/10 13:37:12;;;;;;;1.40;0.60;;;24.40;99.90;;;;;;5034630;28;20299;-88
2021/08/10 13:39:39;;;;;;;0.82;0.80;;;24.40;99.90;;;;;;5035136;28;20226;-89
2021/08/10 13:42:09;;;;;;;3.05;0.93;;;24.40;99.90;;;;;;5034242;28;20724;-89
2021/08/10 13:44:42;;;;;;;0.50;0.50;;;24.30;99.90;;;;;;5034724;28;20228;-88
2021/08/10 13:47:19;;;;;;;0.60;0.55;;;24.20;99.90;;;;;;5034138;28;20215;-89
2021/08/10 13:52:49;;;;;;;1.65;0.63;;;24.10;99.90;;;;;;5033378;28;20227;-89
2021/08/10 13:55:18;;;;;;;4.28;1.00;;;24.00;99.90;;;;;;5034223;28;20218;-89
2021/08/10 13:57:45;;;;;;;0.70;0.70;;;24.10;99.90;;;;;;5034362;28;20213;-89
2021/08/10 14:00:24;;;;;;;0.60;0.60;;;24.00;99.90;;;;;;5033947;28;20215;-89
2021/08/10 14:02:54;;;;;;;1.35;0.63;;;24.10;99.90;;;;;;5033790;28;20222;-88
2021/08/10 14:05:21;;;;;;;1.15;0.60;;;24.00;99.90;;;;;;5033984;28;20204;-89
2021/08/10 14:07:48;;;;;;;1.40;0.63;;;24.00;99.90;;;;;;5033692;28;20207;-89
2021/08/10 14:10:15;;;;;;;0.50;0.50;;;24.00;99.90;;;;;;5033965;28;20203;-89
2021/08/10 14:12:42;;;;;;;1.00;0.90;;;23.90;99.90;;;;;;5033798;28;20227;-89
2021/08/10 14:15:10;;;;;;;1.23;0.63;;;23.90;99.90;;;;;;5034049;28;20196;-89
2021/08/10 14:17:37;;;;;;;0.95;0.75;;;24.00;99.90;;;;;;5033877;28;20217;-89
2021/08/10 14:20:07;;;;;;;0.60;0.60;;;23.90;99.90;;;;;;5033698;28;20227;-88
2021/08/10 14:22:35;;;;;;;1.85;0.60;;;23.90;99.90;;;;;;5034259;28;20234;-89
2021/08/10 14:25:02;;;;;;;1.13;0.60;;;23.90;99.90;;;;;;5034108;28;20261;-89
2021/08/10 14:27:30;;;;;;;0.70;0.70;;;23.70;99.90;;;;;;5033692;28;20205;-88
2021/08/10 14:29:57;;;;;;;1.27;0.55;;;23.60;99.90;;;;;;5033822;28;20217;-89
2021/08/10 14:32:24;;;;;;;0.60;0.60;;;23.50;99.90;;;;;;5033396;28;20226;-85
2021/08/10 14:34:50;;;;;;;2.17;0.63;;;23.50;99.90;;;;;;5033887;28;20207;-88
2021/08/10 14:37:18;;;;;;;0.70;0.63;;;23.40;99.90;;;;;;5033628;28;20207;-89
2021/08/10 14:39:51;;;;;;;0.60;0.60;;;23.40;99.90;;;;;;5033200;28;20314;-88
2021/08/10 14:42:18;;;;;;;1.70;0.85;;;23.40;99.90;;;;;;5033835;28;20583;-86
2021/08/10 14:44:45;;;;;;;0.60;0.50;;;23.40;99.90;;;;;;5033628;28;20585;-88
2021/08/10 14:47:11;;;;;;;0.65;0.60;;;23.30;99.90;;;;;;5033439;28;20290;-88
2021/08/10 14:49:38;;;;;;;0.70;0.70;;;23.30;99.90;;;;;;5033259;28;20203;-89
2021/08/10 14:52:06;;;;;;;1.42;0.60;;;23.40;99.90;;;;;;5033917;28;20711;-89
2021/08/10 14:54:35;;;;;;;0.97;0.70;;;23.40;99.90;;;;;;5033552;28;20246;-88
2021/08/10 14:57:03;;;;;;;0.50;0.50;;;23.30;99.90;;;;;;5033994;28;20215;-87
2021/08/10 14:59:47;;;;;;;1.25;0.60;;;23.30;99.90;;;;;;5033752;28;20310;-88
2021/08/10 15:02:25;;;;;;;0.90;0.60;;;23.30;99.90;;;;;;5033362;28;20231;-87
2021/08/10 15:04:57;;;;;;;0.60;0.60;;;23.20;99.90;;;;;;5033275;28;20198;-88
2021/08/10 15:07:29;;;;;;;0.80;0.77;;;23.30;99.90;;;;;;5033524;28;20707;-88
2021/08/10 15:09:57;;;;;;;0.60;0.50;;;23.20;99.90;;;;;;5033906;28;20616;-89
2021/08/10 15:12:24;;;;;;;1.23;0.70;;;23.10;99.90;;;;;;5033541;28;20306;-88
2021/08/10 15:14:56;;;;;;;2.33;0.53;;;22.90;99.90;;;;;;5033727;28;20184;-86
2021/08/10 15:17:30;;;;;;;0.70;0.70;;;22.80;99.90;;;;;;5033190;28;20564;-85
2021/08/10 15:19:57;;;;;;;0.83;0.70;;;22.70;99.90;;;;;;5032739;28;20227;-86
2021/08/10 15:22:27;;;;;;;0.53;0.50;;;22.60;99.90;;;;;;5032375;28;20710;-87
2021/08/10 15:24:54;;;;;;;0.40;0.40;;;22.60;99.90;;;;;;5033043;28;20644;-88
2021/08/10 15:36:51;;;;;;;1.03;0.50;;;22.50;99.90;;;;;;5123143;22;20504;-86
2021/08/10 15:43:42;;;;;;;0.40;0.40;;;22.20;99.90;;;;;;5036276;28;20261;-87
2021/08/10 15:50:39;;;;;;;0.50;0.50;;;22.00;99.90;;;;;;5030302;28;20430;-87
2021/08/10 15:53:33;;;;;;;0.97;0.70;;;22.00;99.90;;;;;;5036227;28;20434;-87
2021/08/10 16:00:11;;;;;;;1.40;0.70;;;22.00;99.90;;;;;;5034766;28;20442;-87
2021/08/10 16:03:34;;;;;;;0.60;0.60;;;22.10;99.90;;;;;;5032684;28;20477;-87
2021/08/10 16:06:23;;;;;;;0.60;0.60;;;22.00;99.90;;;;;;5024056;28;20452;-87
2021/08/10 16:08:51;;;;;;;0.97;0.70;;;22.00;99.90;;;;;;5035685;28;20411;-87
2021/08/10 16:11:39;;;;;;;0.80;0.70;;;22.10;99.90;;;;;;5035802;28;20458;-86
2021/08/10 16:14:48;;;;;;;;;;;;;;;;;;;;;
2021/08/10 16:17:29;;;;;;;0.60;0.60;;;22.20;99.90;;;;;;5035327;28;20434;-87
2021/08/10 16:26:47;;;;;;;1.73;0.80;;;22.20;99.90;;;;;;4987559;28;20511;-86
2021/08/10 16:36:25;;;;;;;0.90;0.80;;;22.10;99.90;;;;;;4988723;28;20435;-86
2021/08/10 16:38:55;;;;;;;0.70;0.70;;;22.10;99.90;;;;;;4995132;28;20451;-87
2021/08/10 16:44:46;;;;;;;1.27;0.60;;;22.00;99.90;;;;;;4990111;28;20446;-87
2021/08/10 16:47:24;;;;;;;;;;;;;;;;;;;;;
2021/08/10 16:50:09;;;;;;;1.13;0.67;;;21.90;99.90;;;;;;5007683;28;20811;-87
2021/08/10 16:52:36;;;;;;;0.50;0.50;;;21.80;99.90;;;;;;5035189;28;20235;-86
2021/08/10 16:55:12;;;;;;;1.00;0.93;;;21.80;99.90;;;;;;5034979;28;20441;-87
2021/08/10 16:58:16;;;;;;;1.67;0.60;;;21.80;99.90;;;;;;5035874;28;20536;-87
2021/08/10 17:08:49;;;;;;;0.60;0.60;;;22.10;99.90;;;;;;4966248;28;20445;-87
2021/08/10 17:11:24;;;;;;;1.00;0.73;;;22.10;99.90;;;;;;4975551;28;20515;-87
2021/08/10 17:24:15;;;;;;;0.63;0.63;;;21.90;99.90;;;;;;4954943;29;20442;-88
2021/08/10 17:37:21;;;;;;;3.00;1.00;;;21.80;99.90;;;;;;4944362;29;20516;-87
2021/08/10 17:39:58;;;;;;;0.43;0.43;;;21.80;99.90;;;;;;4954235;29;21044;-87
2021/08/10 17:45:37;;;;;;;1.00;0.80;;;21.80;99.90;;;;;;4934951;29;20419;-86
2021/08/10 19:40:54;;;;;;;0.80;0.50;;;19.40;99.90;;;;;;4819058;29;20527;-87
2021/08/10 19:46:10;;;;;;;2.23;0.77;;;19.30;99.90;;;;;;4899421;29;20465;-87
2021/08/10 19:48:38;;;;;;;0.93;0.70;;;19.30;99.90;;;;;;4904069;29;20487;-87
2021/08/10 19:51:12;;;;;;;1.53;0.80;;;19.30;99.90;;;;;;4961165;28;20560;-87
2021/08/10 19:53:39;;;;;;;0.77;0.73;;;19.20;99.90;;;;;;4978565;28;20453;-87
2021/08/10 19:56:09;;;;;;;0.60;0.60;;;19.20;99.90;;;;;;4977458;28;20457;-87
2021/08/10 19:58:36;;;;;;;0.70;0.60;;;19.20;99.90;;;;;;4977703;28;20464;-87
2021/08/10 20:01:03;;;;;;;1.33;0.67;;;19.10;99.90;;;;;;4977286;28;20488;-87
2021/08/10 20:03:33;;;;;;;1.47;0.83;;;19.10;99.90;;;;;;4977957;28;20463;-87
2021/08/10 20:06:00;;;;;;;0.90;0.80;;;19.10;99.90;;;;;;4977383;28;20485;-88
2021/08/10 20:08:26;;;;;;;0.80;0.80;;;19.10;99.90;;;;;;4977102;28;20961;-87
2021/08/10 20:10:53;;;;;;;1.67;0.90;;;19.00;99.90;;;;;;4977113;28;20453;-88
2021/08/10 20:13:22;;;;;;;0.87;0.57;;;19.00;99.90;;;;;;4977899;28;20540;-88
2021/08/10 20:15:50;;;;;;;2.50;0.60;;;19.00;99.90;;;;;;4977495;28;20441;-87
2021/08/10 20:18:17;;;;;;;0.67;0.67;;;19.00;99.90;;;;;;4976047;28;20449;-87
2021/08/10 20:20:44;;;;;;;2.03;1.10;;;19.00;99.90;;;;;;4977003;28;20572;-86
2021/08/10 20:23:11;;;;;;;1.27;0.60;;;18.90;99.90;;;;;;4976976;28;20444;-87
2021/08/10 20:25:38;;;;;;;1.10;0.97;;;18.90;99.90;;;;;;4976742;28;20437;-87
2021/08/10 20:28:05;;;;;;;1.93;0.80;;;18.90;99.90;;;;;;4977732;28;20540;-87
2021/08/10 20:30:33;;;;;;;0.60;0.50;;;18.90;99.90;;;;;;4977091;28;20485;-87
2021/08/10 20:33:00;;;;;;;0.80;0.80;;;18.80;99.90;;;;;;4977123;28;20446;-87
2021/08/10 20:35:27;;;;;;;1.80;1.20;;;18.80;99.90;;;;;;4977209;28;20463;-87
2021/08/10 20:37:53;;;;;;;1.00;0.70;;;18.70;99.90;;;;;;4976525;28;20974;-86
2021/08/10 20:40:20;;;;;;;0.80;0.50;;;18.70;99.90;;;;;;4976494;28;20453;-88
2021/08/10 20:42:47;;;;;;;0.83;0.70;;;18.70;99.90;;;;;;4976741;28;20488;-88
2021/08/10 20:45:14;;;;;;;0.70;0.67;;;18.70;99.90;;;;;;4976807;28;21028;-88
2021/08/10 20:47:42;;;;;;;0.60;0.50;;;18.70;99.90;;;;;;4976601;28;20453;-88
2021/08/10 20:50:09;;;;;;;1.20;0.70;;;18.70;99.90;;;;;;4976872;28;20457;-87
2021/08/10 20:52:36;;;;;;;2.80;1.00;;;18.70;99.90;;;;;;4976422;28;20483;-88
2021/08/10 20:55:03;;;;;;;0.60;0.60;;;18.60;99.90;;;;;;4977325;28;20457;-87
2021/08/10 20:57:29;;;;;;;0.50;0.50;;;18.60;99.90;;;;;;4976604;28;20434;-87